sensor_id;sensor_type;location;lat;lon;timestamp;P1;durP1;ratioP1;P2;durP2;ratioP2
71969;SDS011;59838;52.152;5.436;2023-01-01T00:02:22;21.67;;;12.10;;
71969;SDS011;59838;52.152;5.436;2023-01-01T00:04:49;18.40;;;7.80;;
71969;SDS011;59838;52.152;5.436;2023-01-01T00:07:16;20.13;;;11.80;;
71969;SDS011;59838;52.152;5.436;2023-01-01T00:09:43;20.00;;;8.77;;
71969;SDS011;59838;52.152;5.436;2023-01-01T00:12:36;17.80;;;9.30;;
71969;SDS011;59838;52.152;5.436;2023-01-01T00:15:02;23.33;;;10.55;;
71969;SDS011;59838;52.152;5.436;2023-01-01T00:17:29;17.10;;;8.77;;
71969;SDS011;59838;52.152;5.436;2023-01-01T00:19:56;16.90;;;10.02;;
71969;SDS011;59838;52.152;5.436;2023-01-01T00:22:23;23.70;;;10.30;;
71969;SDS011;59838;52.152;5.436;2023-01-01T00:25:11;15.60;;;7.97;;
71969;SDS011;59838;52.152;5.436;2023-01-01T00:27:43;15.43;;;9.98;;
71969;SDS011;59838;52.152;5.436;2023-01-01T00:30:09;20.48;;;10.75;;
71969;SDS011;59838;52.152;5.436;2023-01-01T00:32:36;21.73;;;11.05;;
71969;SDS011;59838;52.152;5.436;2023-01-01T00:35:03;17.02;;;9.27;;
71969;SDS011;59838;52.152;5.436;2023-01-01T00:37:30;22.73;;;14.40;;
71969;SDS011;59838;52.152;5.436;2023-01-01T00:39:57;16.25;;;9.45;;
71969;SDS011;59838;52.152;5.436;2023-01-01T00:42:24;15.27;;;8.23;;
71969;SDS011;59838;52.152;5.436;2023-01-01T00:44:51;15.35;;;7.60;;
71969;SDS011;59838;52.152;5.436;2023-01-01T00:47:17;14.82;;;9.10;;
71969;SDS011;59838;52.152;5.436;2023-01-01T00:49:44;17.17;;;8.07;;
71969;SDS011;59838;52.152;5.436;2023-01-01T00:52:11;13.48;;;7.43;;
71969;SDS011;59838;52.152;5.436;2023-01-01T00:54:41;14.25;;;6.20;;
71969;SDS011;59838;52.152;5.436;2023-01-01T00:57:08;18.85;;;6.15;;
71969;SDS011;59838;52.152;5.436;2023-01-01T00:59:34;13.27;;;6.15;;
71969;SDS011;59838;52.152;5.436;2023-01-01T01:02:02;13.90;;;4.47;;
71969;SDS011;59838;52.152;5.436;2023-01-01T01:04:28;7.57;;;3.92;;
71969;SDS011;59838;52.152;5.436;2023-01-01T01:06:55;10.35;;;4.32;;
71969;SDS011;59838;52.152;5.436;2023-01-01T01:09:22;11.90;;;4.10;;
71969;SDS011;59838;52.152;5.436;2023-01-01T01:11:48;15.80;;;3.92;;
71969;SDS011;59838;52.152;5.436;2023-01-01T01:14:35;9.47;;;2.70;;
71969;SDS011;59838;52.152;5.436;2023-01-01T01:17:02;9.25;;;2.97;;
71969;SDS011;59838;52.152;5.436;2023-01-01T01:19:28;10.57;;;2.95;;
71969;SDS011;59838;52.152;5.436;2023-01-01T01:21:56;10.00;;;3.15;;
71969;SDS011;59838;52.152;5.436;2023-01-01T01:24:22;11.63;;;3.20;;
71969;SDS011;59838;52.152;5.436;2023-01-01T01:26:49;4.87;;;2.10;;
71969;SDS011;59838;52.152;5.436;2023-01-01T01:29:18;7.30;;;1.55;;
71969;SDS011;59838;52.152;5.436;2023-01-01T01:31:44;6.72;;;1.88;;
71969;SDS011;59838;52.152;5.436;2023-01-01T01:34:11;9.02;;;2.13;;
71969;SDS011;59838;52.152;5.436;2023-01-01T01:36:41;3.70;;;1.92;;
71969;SDS011;59838;52.152;5.436;2023-01-01T01:39:09;8.63;;;2.73;;
71969;SDS011;59838;52.152;5.436;2023-01-01T01:41:41;6.97;;;2.13;;
71969;SDS011;59838;52.152;5.436;2023-01-01T01:47:58;4.65;;;1.52;;
71969;SDS011;59838;52.152;5.436;2023-01-01T01:50:15;11.75;;;2.42;;
71969;SDS011;59838;52.152;5.436;2023-01-01T01:55:44;7.28;;;2.35;;
71969;SDS011;59838;52.152;5.436;2023-01-01T01:58:13;8.18;;;2.22;;
71969;SDS011;59838;52.152;5.436;2023-01-01T02:00:41;8.05;;;2.20;;
71969;SDS011;59838;52.152;5.436;2023-01-01T02:03:10;6.15;;;1.90;;
71969;SDS011;59838;52.152;5.436;2023-01-01T02:05:42;7.47;;;1.70;;
71969;SDS011;59838;52.152;5.436;2023-01-01T02:08:09;8.77;;;1.85;;
71969;SDS011;59838;52.152;5.436;2023-01-01T02:10:39;8.00;;;1.80;;
71969;SDS011;59838;52.152;5.436;2023-01-01T02:13:06;5.60;;;1.20;;
71969;SDS011;59838;52.152;5.436;2023-01-01T02:15:33;4.93;;;1.38;;
71969;SDS011;59838;52.152;5.436;2023-01-01T02:18:11;4.13;;;1.37;;
71969;SDS011;59838;52.152;5.436;2023-01-01T02:23:27;9.85;;;3.20;;
71969;SDS011;59838;52.152;5.436;2023-01-01T02:31:22;4.73;;;2.07;;
71969;SDS011;59838;52.152;5.436;2023-01-01T02:33:54;5.05;;;2.10;;
71969;SDS011;59838;52.152;5.436;2023-01-01T02:36:25;9.13;;;2.38;;
71969;SDS011;59838;52.152;5.436;2023-01-01T02:38:56;8.32;;;1.35;;
71969;SDS011;59838;52.152;5.436;2023-01-01T02:41:27;5.43;;;1.45;;
71969;SDS011;59838;52.152;5.436;2023-01-01T02:43:58;10.93;;;1.10;;
71969;SDS011;59838;52.152;5.436;2023-01-01T02:46:23;7.22;;;1.23;;
71969;SDS011;59838;52.152;5.436;2023-01-01T02:48:57;5.50;;;1.83;;
71969;SDS011;59838;52.152;5.436;2023-01-01T02:54:36;6.95;;;2.20;;
71969;SDS011;59838;52.152;5.436;2023-01-01T02:57:20;5.38;;;1.10;;
71969;SDS011;59838;52.152;5.436;2023-01-01T03:00:05;5.20;;;1.40;;
71969;SDS011;59838;52.152;5.436;2023-01-01T03:11:13;13.25;;;0.70;;
71969;SDS011;59838;52.152;5.436;2023-01-01T03:16:39;6.73;;;1.33;;
71969;SDS011;59838;52.152;5.436;2023-01-01T03:19:26;3.67;;;0.77;;
71969;SDS011;59838;52.152;5.436;2023-01-01T03:22:00;4.80;;;0.80;;
71969;SDS011;59838;52.152;5.436;2023-01-01T03:24:34;6.82;;;0.60;;
71969;SDS011;59838;52.152;5.436;2023-01-01T03:27:07;2.38;;;1.05;;
71969;SDS011;59838;52.152;5.436;2023-01-01T03:29:39;3.10;;;0.90;;
71969;SDS011;59838;52.152;5.436;2023-01-01T03:32:08;4.35;;;0.70;;
71969;SDS011;59838;52.152;5.436;2023-01-01T03:34:40;5.82;;;1.88;;
71969;SDS011;59838;52.152;5.436;2023-01-01T03:37:16;4.78;;;0.80;;
71969;SDS011;59838;52.152;5.436;2023-01-01T03:39:50;5.07;;;1.20;;
71969;SDS011;59838;52.152;5.436;2023-01-01T03:42:32;5.47;;;0.67;;
71969;SDS011;59838;52.152;5.436;2023-01-01T03:45:04;4.88;;;1.10;;
71969;SDS011;59838;52.152;5.436;2023-01-01T03:47:35;2.72;;;0.63;;
71969;SDS011;59838;52.152;5.436;2023-01-01T03:50:03;6.10;;;0.68;;
71969;SDS011;59838;52.152;5.436;2023-01-01T03:55:09;4.43;;;0.53;;
71969;SDS011;59838;52.152;5.436;2023-01-01T04:00:50;6.80;;;0.70;;
71969;SDS011;59838;52.152;5.436;2023-01-01T04:03:26;5.28;;;0.82;;
71969;SDS011;59838;52.152;5.436;2023-01-01T04:05:54;4.65;;;0.75;;
71969;SDS011;59838;52.152;5.436;2023-01-01T04:08:21;3.57;;;0.70;;
71969;SDS011;59838;52.152;5.436;2023-01-01T04:10:49;6.20;;;0.93;;
71969;SDS011;59838;52.152;5.436;2023-01-01T04:13:20;4.75;;;0.70;;
71969;SDS011;59838;52.152;5.436;2023-01-01T04:15:46;3.78;;;0.90;;
71969;SDS011;59838;52.152;5.436;2023-01-01T04:18:13;2.97;;;0.80;;
71969;SDS011;59838;52.152;5.436;2023-01-01T04:20:40;5.40;;;0.60;;
71969;SDS011;59838;52.152;5.436;2023-01-01T04:23:06;6.82;;;0.50;;
71969;SDS011;59838;52.152;5.436;2023-01-01T04:25:32;4.40;;;0.47;;
71969;SDS011;59838;52.152;5.436;2023-01-01T04:27:59;5.90;;;0.60;;
71969;SDS011;59838;52.152;5.436;2023-01-01T04:30:28;8.35;;;0.60;;
71969;SDS011;59838;52.152;5.436;2023-01-01T04:32:55;7.17;;;0.93;;
71969;SDS011;59838;52.152;5.436;2023-01-01T04:35:22;2.10;;;0.35;;
71969;SDS011;59838;52.152;5.436;2023-01-01T04:37:48;3.28;;;0.70;;
71969;SDS011;59838;52.152;5.436;2023-01-01T04:40:15;3.72;;;0.73;;
71969;SDS011;59838;52.152;5.436;2023-01-01T04:42:41;2.97;;;0.32;;
71969;SDS011;59838;52.152;5.436;2023-01-01T04:45:08;4.43;;;0.90;;
71969;SDS011;59838;52.152;5.436;2023-01-01T04:47:37;3.92;;;1.02;;
71969;SDS011;59838;52.152;5.436;2023-01-01T04:50:04;4.75;;;0.98;;
71969;SDS011;59838;52.152;5.436;2023-01-01T04:52:31;5.53;;;0.60;;
71969;SDS011;59838;52.152;5.436;2023-01-01T04:54:58;3.30;;;1.00;;
71969;SDS011;59838;52.152;5.436;2023-01-01T04:57:25;5.37;;;0.97;;
71969;SDS011;59838;52.152;5.436;2023-01-01T04:59:54;6.43;;;1.08;;
71969;SDS011;59838;52.152;5.436;2023-01-01T05:02:21;3.08;;;0.60;;
71969;SDS011;59838;52.152;5.436;2023-01-01T05:04:49;2.58;;;0.50;;
71969;SDS011;59838;52.152;5.436;2023-01-01T05:07:16;4.43;;;0.73;;
71969;SDS011;59838;52.152;5.436;2023-01-01T05:09:43;6.07;;;0.83;;
71969;SDS011;59838;52.152;5.436;2023-01-01T05:12:09;3.13;;;0.68;;
71969;SDS011;59838;52.152;5.436;2023-01-01T05:14:36;2.50;;;0.63;;
71969;SDS011;59838;52.152;5.436;2023-01-01T05:17:03;5.47;;;0.63;;
71969;SDS011;59838;52.152;5.436;2023-01-01T05:19:29;2.53;;;0.85;;
71969;SDS011;59838;52.152;5.436;2023-01-01T05:21:56;6.53;;;0.80;;
71969;SDS011;59838;52.152;5.436;2023-01-01T05:24:22;2.50;;;0.65;;
71969;SDS011;59838;52.152;5.436;2023-01-01T05:26:49;4.20;;;0.65;;
71969;SDS011;59838;52.152;5.436;2023-01-01T05:29:15;2.90;;;0.40;;
71969;SDS011;59838;52.152;5.436;2023-01-01T05:31:43;5.35;;;0.57;;
71969;SDS011;59838;52.152;5.436;2023-01-01T05:34:11;4.13;;;0.50;;
71969;SDS011;59838;52.152;5.436;2023-01-01T05:36:38;3.30;;;1.17;;
71969;SDS011;59838;52.152;5.436;2023-01-01T05:39:06;3.35;;;0.50;;
71969;SDS011;59838;52.152;5.436;2023-01-01T05:41:33;7.38;;;0.45;;
71969;SDS011;59838;52.152;5.436;2023-01-01T05:44:02;3.78;;;0.60;;
71969;SDS011;59838;52.152;5.436;2023-01-01T05:46:31;1.87;;;0.30;;
71969;SDS011;59838;52.152;5.436;2023-01-01T05:48:58;4.40;;;0.55;;
71969;SDS011;59838;52.152;5.436;2023-01-01T05:51:27;3.03;;;0.38;;
71969;SDS011;59838;52.152;5.436;2023-01-01T05:53:55;3.15;;;0.45;;
71969;SDS011;59838;52.152;5.436;2023-01-01T05:56:22;5.00;;;0.40;;
71969;SDS011;59838;52.152;5.436;2023-01-01T05:58:49;2.70;;;0.50;;
71969;SDS011;59838;52.152;5.436;2023-01-01T06:01:18;2.35;;;0.30;;
71969;SDS011;59838;52.152;5.436;2023-01-01T06:03:49;5.18;;;0.65;;
71969;SDS011;59838;52.152;5.436;2023-01-01T06:06:17;4.50;;;0.38;;
71969;SDS011;59838;52.152;5.436;2023-01-01T06:08:52;3.53;;;0.30;;
71969;SDS011;59838;52.152;5.436;2023-01-01T06:11:21;2.97;;;0.30;;
71969;SDS011;59838;52.152;5.436;2023-01-01T06:13:50;6.90;;;0.32;;
71969;SDS011;59838;52.152;5.436;2023-01-01T06:16:17;2.25;;;0.30;;
71969;SDS011;59838;52.152;5.436;2023-01-01T06:18:45;2.92;;;0.22;;
71969;SDS011;59838;52.152;5.436;2023-01-01T06:21:12;2.78;;;0.38;;
71969;SDS011;59838;52.152;5.436;2023-01-01T06:23:42;10.30;;;0.30;;
71969;SDS011;59838;52.152;5.436;2023-01-01T06:28:37;6.18;;;0.40;;
71969;SDS011;59838;52.152;5.436;2023-01-01T06:31:06;2.15;;;0.32;;
71969;SDS011;59838;52.152;5.436;2023-01-01T06:33:34;3.83;;;0.57;;
71969;SDS011;59838;52.152;5.436;2023-01-01T06:36:04;2.93;;;0.40;;
71969;SDS011;59838;52.152;5.436;2023-01-01T06:38:33;7.35;;;0.65;;
71969;SDS011;59838;52.152;5.436;2023-01-01T06:41:03;8.35;;;0.98;;
71969;SDS011;59838;52.152;5.436;2023-01-01T06:43:31;1.73;;;0.57;;
71969;SDS011;59838;52.152;5.436;2023-01-01T06:48:26;5.83;;;0.30;;
71969;SDS011;59838;52.152;5.436;2023-01-01T06:50:54;2.80;;;0.30;;
71969;SDS011;59838;52.152;5.436;2023-01-01T06:53:24;2.50;;;0.50;;
71969;SDS011;59838;52.152;5.436;2023-01-01T06:55:52;3.63;;;0.20;;
71969;SDS011;59838;52.152;5.436;2023-01-01T06:58:22;3.13;;;0.30;;
71969;SDS011;59838;52.152;5.436;2023-01-01T07:00:49;4.50;;;0.67;;
71969;SDS011;59838;52.152;5.436;2023-01-01T07:03:16;1.70;;;0.60;;
71969;SDS011;59838;52.152;5.436;2023-01-01T07:05:49;3.75;;;0.40;;
71969;SDS011;59838;52.152;5.436;2023-01-01T07:08:18;0.95;;;0.20;;
71969;SDS011;59838;52.152;5.436;2023-01-01T07:10:45;1.17;;;0.30;;
71969;SDS011;59838;52.152;5.436;2023-01-01T07:13:14;2.27;;;0.40;;
71969;SDS011;59838;52.152;5.436;2023-01-01T07:15:42;1.00;;;0.20;;
71969;SDS011;59838;52.152;5.436;2023-01-01T07:18:09;4.88;;;0.40;;
71969;SDS011;59838;52.152;5.436;2023-01-01T07:20:40;3.00;;;0.20;;
71969;SDS011;59838;52.152;5.436;2023-01-01T07:23:10;1.95;;;0.20;;
71969;SDS011;59838;52.152;5.436;2023-01-01T07:25:38;2.77;;;0.30;;
71969;SDS011;59838;52.152;5.436;2023-01-01T07:28:08;2.78;;;0.20;;
71969;SDS011;59838;52.152;5.436;2023-01-01T07:30:36;1.73;;;0.30;;
71969;SDS011;59838;52.152;5.436;2023-01-01T07:33:03;6.32;;;0.30;;
71969;SDS011;59838;52.152;5.436;2023-01-01T07:35:32;2.30;;;0.30;;
71969;SDS011;59838;52.152;5.436;2023-01-01T07:38:00;2.77;;;0.20;;
71969;SDS011;59838;52.152;5.436;2023-01-01T07:40:27;6.05;;;0.25;;
71969;SDS011;59838;52.152;5.436;2023-01-01T07:42:56;2.13;;;0.22;;
71969;SDS011;59838;52.152;5.436;2023-01-01T07:45:24;3.15;;;0.30;;
71969;SDS011;59838;52.152;5.436;2023-01-01T07:47:52;2.35;;;0.30;;
71969;SDS011;59838;52.152;5.436;2023-01-01T07:50:21;6.60;;;0.50;;
71969;SDS011;59838;52.152;5.436;2023-01-01T07:52:49;1.60;;;0.30;;
71969;SDS011;59838;52.152;5.436;2023-01-01T07:55:17;4.22;;;0.50;;
71969;SDS011;59838;52.152;5.436;2023-01-01T07:57:45;5.07;;;0.28;;
71969;SDS011;59838;52.152;5.436;2023-01-01T08:00:15;6.35;;;0.30;;
71969;SDS011;59838;52.152;5.436;2023-01-01T08:02:43;6.77;;;0.23;;
71969;SDS011;59838;52.152;5.436;2023-01-01T08:05:10;4.38;;;0.32;;
71969;SDS011;59838;52.152;5.436;2023-01-01T08:07:39;3.63;;;0.45;;
71969;SDS011;59838;52.152;5.436;2023-01-01T08:10:06;3.38;;;0.20;;
71969;SDS011;59838;52.152;5.436;2023-01-01T08:12:34;2.42;;;0.20;;
71969;SDS011;59838;52.152;5.436;2023-01-01T08:15:02;3.70;;;0.20;;
71969;SDS011;59838;52.152;5.436;2023-01-01T08:17:29;1.13;;;0.20;;
71969;SDS011;59838;52.152;5.436;2023-01-01T08:19:56;1.75;;;0.22;;
71969;SDS011;59838;52.152;5.436;2023-01-01T08:22:26;2.63;;;0.38;;
71969;SDS011;59838;52.152;5.436;2023-01-01T08:24:53;4.65;;;0.20;;
71969;SDS011;59838;52.152;5.436;2023-01-01T08:27:21;3.80;;;0.37;;
71969;SDS011;59838;52.152;5.436;2023-01-01T08:29:49;8.48;;;0.55;;
71969;SDS011;59838;52.152;5.436;2023-01-01T08:32:16;4.72;;;0.20;;
71969;SDS011;59838;52.152;5.436;2023-01-01T08:34:43;4.25;;;0.25;;
71969;SDS011;59838;52.152;5.436;2023-01-01T08:37:13;2.25;;;0.10;;
71969;SDS011;59838;52.152;5.436;2023-01-01T08:39:40;4.87;;;0.33;;
71969;SDS011;59838;52.152;5.436;2023-01-01T08:42:07;4.97;;;0.40;;
71969;SDS011;59838;52.152;5.436;2023-01-01T08:44:37;1.27;;;0.30;;
71969;SDS011;59838;52.152;5.436;2023-01-01T08:47:04;4.45;;;0.30;;
71969;SDS011;59838;52.152;5.436;2023-01-01T08:49:30;4.97;;;0.20;;
71969;SDS011;59838;52.152;5.436;2023-01-01T08:51:57;5.40;;;0.60;;
71969;SDS011;59838;52.152;5.436;2023-01-01T08:54:24;5.53;;;0.32;;
71969;SDS011;59838;52.152;5.436;2023-01-01T08:56:50;2.28;;;0.20;;
71969;SDS011;59838;52.152;5.436;2023-01-01T08:59:17;3.40;;;0.40;;
71969;SDS011;59838;52.152;5.436;2023-01-01T09:01:43;5.18;;;0.43;;
71969;SDS011;59838;52.152;5.436;2023-01-01T09:04:10;3.60;;;0.30;;
71969;SDS011;59838;52.152;5.436;2023-01-01T09:06:41;4.63;;;0.20;;
71969;SDS011;59838;52.152;5.436;2023-01-01T09:09:07;7.80;;;0.30;;
71969;SDS011;59838;52.152;5.436;2023-01-01T09:11:34;3.00;;;0.32;;
71969;SDS011;59838;52.152;5.436;2023-01-01T09:14:00;4.78;;;0.30;;
71969;SDS011;59838;52.152;5.436;2023-01-01T09:16:26;3.23;;;0.30;;
71969;SDS011;59838;52.152;5.436;2023-01-01T09:18:53;3.95;;;0.40;;
71969;SDS011;59838;52.152;5.436;2023-01-01T09:21:19;8.38;;;0.40;;
71969;SDS011;59838;52.152;5.436;2023-01-01T09:23:46;6.55;;;0.30;;
71969;SDS011;59838;52.152;5.436;2023-01-01T09:26:12;4.65;;;0.35;;
71969;SDS011;59838;52.152;5.436;2023-01-01T09:28:39;3.37;;;1.00;;
71969;SDS011;59838;52.152;5.436;2023-01-01T09:31:05;4.82;;;0.30;;
71969;SDS011;59838;52.152;5.436;2023-01-01T09:33:32;3.70;;;0.30;;
71969;SDS011;59838;52.152;5.436;2023-01-01T09:36:12;4.85;;;0.63;;
71969;SDS011;59838;52.152;5.436;2023-01-01T09:38:48;2.10;;;0.40;;
71969;SDS011;59838;52.152;5.436;2023-01-01T09:41:22;5.97;;;0.50;;
71969;SDS011;59838;52.152;5.436;2023-01-01T09:44:13;8.25;;;0.32;;
71969;SDS011;59838;52.152;5.436;2023-01-01T09:46:55;6.50;;;0.60;;
71969;SDS011;59838;52.152;5.436;2023-01-01T09:52:08;3.35;;;0.40;;
71969;SDS011;59838;52.152;5.436;2023-01-01T09:54:39;2.90;;;0.33;;
71969;SDS011;59838;52.152;5.436;2023-01-01T09:57:12;5.38;;;0.47;;
71969;SDS011;59838;52.152;5.436;2023-01-01T09:59:45;1.70;;;0.20;;
71969;SDS011;59838;52.152;5.436;2023-01-01T10:13:43;3.90;;;0.40;;
71969;SDS011;59838;52.152;5.436;2023-01-01T10:19:18;4.78;;;0.40;;
71969;SDS011;59838;52.152;5.436;2023-01-01T10:21:50;3.63;;;0.63;;
71969;SDS011;59838;52.152;5.436;2023-01-01T10:26:53;3.47;;;0.30;;
71969;SDS011;59838;52.152;5.436;2023-01-01T10:29:23;7.00;;;0.60;;
71969;SDS011;59838;52.152;5.436;2023-01-01T10:31:57;9.43;;;0.98;;
71969;SDS011;59838;52.152;5.436;2023-01-01T10:34:30;5.33;;;0.30;;
71969;SDS011;59838;52.152;5.436;2023-01-01T10:36:59;2.75;;;0.50;;
71969;SDS011;59838;52.152;5.436;2023-01-01T10:39:26;5.43;;;0.45;;
71969;SDS011;59838;52.152;5.436;2023-01-01T10:41:53;2.72;;;0.40;;
71969;SDS011;59838;52.152;5.436;2023-01-01T10:44:27;3.05;;;0.40;;
71969;SDS011;59838;52.152;5.436;2023-01-01T10:46:56;5.07;;;0.43;;
71969;SDS011;59838;52.152;5.436;2023-01-01T10:49:24;3.92;;;0.22;;
71969;SDS011;59838;52.152;5.436;2023-01-01T10:51:51;5.65;;;0.40;;
71969;SDS011;59838;52.152;5.436;2023-01-01T10:57:17;5.53;;;0.40;;
71969;SDS011;59838;52.152;5.436;2023-01-01T10:59:47;6.83;;;0.37;;
71969;SDS011;59838;52.152;5.436;2023-01-01T11:04:51;6.65;;;0.57;;
71969;SDS011;59838;52.152;5.436;2023-01-01T11:07:43;6.97;;;0.90;;
71969;SDS011;59838;52.152;5.436;2023-01-01T11:12:45;4.87;;;0.50;;
71969;SDS011;59838;52.152;5.436;2023-01-01T11:15:37;4.82;;;0.45;;
71969;SDS011;59838;52.152;5.436;2023-01-01T11:18:11;6.53;;;0.88;;
71969;SDS011;59838;52.152;5.436;2023-01-01T11:20:40;5.22;;;0.47;;
71969;SDS011;59838;52.152;5.436;2023-01-01T11:23:17;5.57;;;0.80;;
71969;SDS011;59838;52.152;5.436;2023-01-01T11:26:03;7.83;;;0.57;;
71969;SDS011;59838;52.152;5.436;2023-01-01T11:28:39;3.40;;;0.57;;
71969;SDS011;59838;52.152;5.436;2023-01-01T11:31:11;3.28;;;0.73;;
71969;SDS011;59838;52.152;5.436;2023-01-01T11:36:19;5.95;;;0.73;;
71969;SDS011;59838;52.152;5.436;2023-01-01T11:38:48;7.57;;;1.00;;
71969;SDS011;59838;52.152;5.436;2023-01-01T11:41:39;8.23;;;0.60;;
71969;SDS011;59838;52.152;5.436;2023-01-01T11:44:08;6.72;;;0.50;;
71969;SDS011;59838;52.152;5.436;2023-01-01T11:46:37;8.63;;;0.82;;
71969;SDS011;59838;52.152;5.436;2023-01-01T11:49:11;6.90;;;0.70;;
71969;SDS011;59838;52.152;5.436;2023-01-01T11:51:46;6.53;;;0.53;;
71969;SDS011;59838;52.152;5.436;2023-01-01T11:57:00;6.18;;;0.80;;
71969;SDS011;59838;52.152;5.436;2023-01-01T11:59:41;6.00;;;0.40;;
71969;SDS011;59838;52.152;5.436;2023-01-01T12:02:13;5.05;;;0.45;;
71969;SDS011;59838;52.152;5.436;2023-01-01T12:04:45;4.40;;;1.43;;
71969;SDS011;59838;52.152;5.436;2023-01-01T12:07:18;7.88;;;1.27;;
71969;SDS011;59838;52.152;5.436;2023-01-01T12:10:37;5.68;;;0.95;;
71969;SDS011;59838;52.152;5.436;2023-01-01T12:12:51;5.57;;;0.80;;
71969;SDS011;59838;52.152;5.436;2023-01-01T12:18:55;5.17;;;0.70;;
71969;SDS011;59838;52.152;5.436;2023-01-01T12:21:27;6.20;;;0.95;;
71969;SDS011;59838;52.152;5.436;2023-01-01T12:23:54;6.25;;;0.52;;
71969;SDS011;59838;52.152;5.436;2023-01-01T12:26:22;8.05;;;1.05;;
71969;SDS011;59838;52.152;5.436;2023-01-01T12:31:50;6.87;;;0.90;;
71969;SDS011;59838;52.152;5.436;2023-01-01T12:35:08;5.93;;;0.63;;
71969;SDS011;59838;52.152;5.436;2023-01-01T12:43:04;4.40;;;1.00;;
71969;SDS011;59838;52.152;5.436;2023-01-01T12:46:02;5.47;;;0.63;;
71969;SDS011;59838;52.152;5.436;2023-01-01T12:51:14;6.53;;;0.80;;
71969;SDS011;59838;52.152;5.436;2023-01-01T12:56:44;10.32;;;0.95;;
71969;SDS011;59838;52.152;5.436;2023-01-01T12:59:34;7.60;;;1.13;;
71969;SDS011;59838;52.152;5.436;2023-01-01T13:02:18;7.88;;;0.52;;
71969;SDS011;59838;52.152;5.436;2023-01-01T13:04:49;4.63;;;0.60;;
71969;SDS011;59838;52.152;5.436;2023-01-01T13:07:21;5.00;;;0.82;;
71969;SDS011;59838;52.152;5.436;2023-01-01T13:09:52;10.02;;;1.13;;
71969;SDS011;59838;52.152;5.436;2023-01-01T13:12:20;11.37;;;1.30;;
71969;SDS011;59838;52.152;5.436;2023-01-01T13:14:50;4.40;;;0.45;;
71969;SDS011;59838;52.152;5.436;2023-01-01T13:17:18;6.32;;;0.73;;
71969;SDS011;59838;52.152;5.436;2023-01-01T13:19:51;9.65;;;1.02;;
71969;SDS011;59838;52.152;5.436;2023-01-01T13:22:40;8.73;;;1.35;;
71969;SDS011;59838;52.152;5.436;2023-01-01T13:33:12;16.45;;;1.13;;
71969;SDS011;59838;52.152;5.436;2023-01-01T13:46:31;9.13;;;0.60;;
71969;SDS011;59838;52.152;5.436;2023-01-01T13:51:56;7.37;;;0.50;;
71969;SDS011;59838;52.152;5.436;2023-01-01T13:57:34;4.25;;;0.65;;
71969;SDS011;59838;52.152;5.436;2023-01-01T14:00:20;6.32;;;0.50;;
71969;SDS011;59838;52.152;5.436;2023-01-01T14:02:50;7.00;;;0.60;;
71969;SDS011;59838;52.152;5.436;2023-01-01T14:07:58;7.93;;;1.17;;
71969;SDS011;59838;52.152;5.436;2023-01-01T14:10:29;7.28;;;0.82;;
71969;SDS011;59838;52.152;5.436;2023-01-01T14:15:39;8.93;;;1.02;;
71969;SDS011;59838;52.152;5.436;2023-01-01T14:18:15;7.53;;;1.20;;
71969;SDS011;59838;52.152;5.436;2023-01-01T14:20:44;11.93;;;1.23;;
71969;SDS011;59838;52.152;5.436;2023-01-01T14:23:20;10.35;;;1.08;;
71969;SDS011;59838;52.152;5.436;2023-01-01T14:25:53;5.97;;;0.85;;
71969;SDS011;59838;52.152;5.436;2023-01-01T14:28:24;8.45;;;0.90;;
71969;SDS011;59838;52.152;5.436;2023-01-01T14:30:53;3.03;;;0.50;;
71969;SDS011;59838;52.152;5.436;2023-01-01T14:33:22;6.00;;;1.02;;
71969;SDS011;59838;52.152;5.436;2023-01-01T14:35:54;7.40;;;1.17;;
71969;SDS011;59838;52.152;5.436;2023-01-01T14:38:23;8.65;;;1.20;;
71969;SDS011;59838;52.152;5.436;2023-01-01T14:41:26;12.65;;;1.20;;
71969;SDS011;59838;52.152;5.436;2023-01-01T14:44:01;5.40;;;0.97;;
71969;SDS011;59838;52.152;5.436;2023-01-01T14:46:31;8.45;;;0.75;;
71969;SDS011;59838;52.152;5.436;2023-01-01T14:49:02;5.05;;;0.73;;
71969;SDS011;59838;52.152;5.436;2023-01-01T14:51:35;9.38;;;0.70;;
71969;SDS011;59838;52.152;5.436;2023-01-01T14:54:11;7.32;;;0.93;;
71969;SDS011;59838;52.152;5.436;2023-01-01T14:56:49;7.70;;;0.80;;
71969;SDS011;59838;52.152;5.436;2023-01-01T15:04:39;4.97;;;0.82;;
71969;SDS011;59838;52.152;5.436;2023-01-01T15:07:15;6.15;;;0.98;;
71969;SDS011;59838;52.152;5.436;2023-01-01T15:09:45;7.60;;;0.97;;
71969;SDS011;59838;52.152;5.436;2023-01-01T15:12:13;8.35;;;0.82;;
71969;SDS011;59838;52.152;5.436;2023-01-01T15:14:43;9.68;;;1.45;;
71969;SDS011;59838;52.152;5.436;2023-01-01T15:17:11;7.22;;;1.00;;
71969;SDS011;59838;52.152;5.436;2023-01-01T15:19:43;5.93;;;1.10;;
71969;SDS011;59838;52.152;5.436;2023-01-01T15:22:13;5.33;;;0.63;;
71969;SDS011;59838;52.152;5.436;2023-01-01T15:24:45;5.72;;;0.82;;
71969;SDS011;59838;52.152;5.436;2023-01-01T15:27:19;5.97;;;0.90;;
71969;SDS011;59838;52.152;5.436;2023-01-01T15:29:46;7.40;;;1.05;;
71969;SDS011;59838;52.152;5.436;2023-01-01T15:32:13;8.80;;;1.27;;
71969;SDS011;59838;52.152;5.436;2023-01-01T15:34:42;6.30;;;1.07;;
71969;SDS011;59838;52.152;5.436;2023-01-01T15:37:15;8.55;;;0.85;;
71969;SDS011;59838;52.152;5.436;2023-01-01T15:39:47;4.45;;;1.00;;
71969;SDS011;59838;52.152;5.436;2023-01-01T15:42:20;7.05;;;1.23;;
71969;SDS011;59838;52.152;5.436;2023-01-01T15:45:07;6.35;;;1.63;;
71969;SDS011;59838;52.152;5.436;2023-01-01T15:47:40;10.03;;;1.30;;
71969;SDS011;59838;52.152;5.436;2023-01-01T15:50:10;7.97;;;1.20;;
71969;SDS011;59838;52.152;5.436;2023-01-01T15:52:46;8.20;;;1.73;;
71969;SDS011;59838;52.152;5.436;2023-01-01T15:55:21;7.15;;;1.40;;
71969;SDS011;59838;52.152;5.436;2023-01-01T15:57:49;8.10;;;1.83;;
71969;SDS011;59838;52.152;5.436;2023-01-01T16:00:18;8.47;;;1.53;;
71969;SDS011;59838;52.152;5.436;2023-01-01T16:02:49;6.68;;;1.45;;
71969;SDS011;59838;52.152;5.436;2023-01-01T16:05:22;16.80;;;1.52;;
71969;SDS011;59838;52.152;5.436;2023-01-01T16:07:57;13.25;;;2.25;;
71969;SDS011;59838;52.152;5.436;2023-01-01T16:10:25;11.23;;;1.85;;
71969;SDS011;59838;52.152;5.436;2023-01-01T16:12:51;12.77;;;3.10;;
71969;SDS011;59838;52.152;5.436;2023-01-01T16:15:18;9.63;;;1.77;;
71969;SDS011;59838;52.152;5.436;2023-01-01T16:17:44;7.30;;;2.15;;
71969;SDS011;59838;52.152;5.436;2023-01-01T16:20:15;8.65;;;2.10;;
71969;SDS011;59838;52.152;5.436;2023-01-01T16:22:42;11.50;;;1.85;;
71969;SDS011;59838;52.152;5.436;2023-01-01T16:25:16;8.43;;;1.63;;
71969;SDS011;59838;52.152;5.436;2023-01-01T16:27:44;7.90;;;1.45;;
71969;SDS011;59838;52.152;5.436;2023-01-01T16:30:12;9.75;;;2.55;;
71969;SDS011;59838;52.152;5.436;2023-01-01T16:32:39;8.57;;;1.70;;
71969;SDS011;59838;52.152;5.436;2023-01-01T16:35:08;8.10;;;1.92;;
71969;SDS011;59838;52.152;5.436;2023-01-01T16:37:38;6.50;;;1.60;;
71969;SDS011;59838;52.152;5.436;2023-01-01T16:40:04;9.02;;;1.92;;
71969;SDS011;59838;52.152;5.436;2023-01-01T16:42:32;10.68;;;2.15;;
71969;SDS011;59838;52.152;5.436;2023-01-01T16:44:59;7.57;;;1.85;;
71969;SDS011;59838;52.152;5.436;2023-01-01T16:47:25;8.13;;;1.80;;
71969;SDS011;59838;52.152;5.436;2023-01-01T16:49:51;5.73;;;1.67;;
71969;SDS011;59838;52.152;5.436;2023-01-01T16:52:18;13.23;;;2.03;;
71969;SDS011;59838;52.152;5.436;2023-01-01T16:54:44;8.15;;;2.30;;
71969;SDS011;59838;52.152;5.436;2023-01-01T16:57:11;8.80;;;1.80;;
71969;SDS011;59838;52.152;5.436;2023-01-01T16:59:37;6.07;;;1.40;;
71969;SDS011;59838;52.152;5.436;2023-01-01T17:02:04;4.10;;;1.50;;
71969;SDS011;59838;52.152;5.436;2023-01-01T17:04:30;13.50;;;1.35;;
71969;SDS011;59838;52.152;5.436;2023-01-01T17:06:57;7.25;;;1.60;;
71969;SDS011;59838;52.152;5.436;2023-01-01T17:09:23;8.35;;;1.83;;
71969;SDS011;59838;52.152;5.436;2023-01-01T17:11:50;8.73;;;2.53;;